KLBF/LBF METAR and TAF weather

Enter ICAO airport designator
Station Type Date Time Source
KLBF METAR 2020/02/20 17:53 UTC NOAA

KLBF 201753Z AUTO 00000KT 10SM CLR M07/M11 A3066 RMK AO2 SLP442 I1000 I6001 T10671111 11061 21217 58004


Station Type Date Time Source
KLBF Decoded METAR 2020/02/20 17:53 UTC NOAA

NORTH PLATTE REGIONAL AIRPORT , NE, United States (KLBF) 41-07N 100-40W 847M
Feb 20, 2020 - 12:53 PM EST / 2020.02.20 1753 UTC
Wind: Calm:0
Visibility: 10 mile(s):0
Sky conditions: clear
Temperature: 19.9 F (-6.7 C)
Dew Point: 12.0 F (-11.1 C)
Relative Humidity: 70%
Pressure (altimeter): 30.66 in. Hg (1038 hPa)
Pressure tendency: 0.01 inches (0.4 hPa) lower than three hours ago
ob: KLBF 201753Z AUTO 00000KT 10SM CLR M07/M11 A3066 RMK AO2 SLP442 I1000 I6001 T10671111 11061 21217 58004
cycle: 18

Station Type Date Time Source
KLBF TAF 2020/02/20 18:22 UTC NOAA

TAF KLBF 201720Z 2018/2118 34003KT P6SM SKC
FM210000 20005KT P6SM SKC

Example: see airport list